createdAt,value
2018-06-21T00:00:09.663Z,6.13
2018-06-21T00:01:14.543Z,6.10
2018-06-21T00:02:19.187Z,6.07
2018-06-21T00:03:23.386Z,6.80
2018-06-21T00:04:27.741Z,6.47
2018-06-21T00:05:32.228Z,5.83
2018-06-21T00:06:36.462Z,6.03
2018-06-21T00:07:40.766Z,6.90
2018-06-21T00:08:44.978Z,6.97
2018-06-21T00:09:49.400Z,6.60
2018-06-21T00:10:53.683Z,6.30
2018-06-21T00:11:58.052Z,6.60
2018-06-21T00:13:02.324Z,6.53
2018-06-21T00:14:06.555Z,6.87
2018-06-21T00:15:10.784Z,6.90
2018-06-21T00:16:15.197Z,6.30
2018-06-21T00:17:19.387Z,6.33
2018-06-21T00:18:23.810Z,7.97
2018-06-21T00:19:28.271Z,6.27
2018-06-21T00:20:32.784Z,6.47
2018-06-21T00:21:36.334Z,6.50
2018-06-21T00:22:40.251Z,7.03
2018-06-21T00:23:44.516Z,7.17
2018-06-21T00:24:48.710Z,7.80
2018-06-21T00:25:53.091Z,6.90
2018-06-21T00:26:57.837Z,7.10
2018-06-21T00:28:02.212Z,6.45
2018-06-21T00:29:06.621Z,5.87
2018-06-21T00:30:11.159Z,5.73
2018-06-21T00:31:15.725Z,6.67
2018-06-21T00:32:19.942Z,6.27
2018-06-21T00:33:24.506Z,6.00
2018-06-21T00:34:29.167Z,6.67
2018-06-21T00:35:33.542Z,7.17
2018-06-21T00:36:38.036Z,6.30
2018-06-21T00:37:42.339Z,6.40
2018-06-21T00:38:46.638Z,6.77
2018-06-21T00:39:50.900Z,6.17
2018-06-21T00:40:55.161Z,7.57
2018-06-21T00:41:59.715Z,6.80
2018-06-21T00:43:04.214Z,6.75
2018-06-21T00:44:08.554Z,6.80
2018-06-21T00:45:13.074Z,7.20
2018-06-21T00:46:17.619Z,6.00
2018-06-21T00:47:22.060Z,7.00
2018-06-21T00:48:26.361Z,6.53
2018-06-21T00:49:30.544Z,6.23
2018-06-21T00:50:34.858Z,6.40
2018-06-21T00:51:39.163Z,7.40
2018-06-21T00:52:43.642Z,7.20
2018-06-21T00:53:47.914Z,6.80
2018-06-21T00:54:52.098Z,7.10
2018-06-21T00:56:17.935Z,6.87
2018-06-21T00:57:22.364Z,7.08
2018-06-21T00:58:26.526Z,6.53
2018-06-21T00:59:30.989Z,7.13
2018-06-21T01:00:36.194Z,5.87
2018-06-21T01:01:40.527Z,6.50
2018-06-21T01:02:45.349Z,7.27
2018-06-21T01:03:49.734Z,7.35
2018-06-21T01:04:53.988Z,6.53
2018-06-21T01:05:58.129Z,6.80
2018-06-21T01:07:02.439Z,6.50
2018-06-21T01:08:06.734Z,7.70
2018-06-21T01:09:10.952Z,6.80
2018-06-21T01:10:15.385Z,6.92
2018-06-21T01:11:20.082Z,6.75
2018-06-21T01:12:24.798Z,6.43
2018-06-21T01:13:29.102Z,6.77
2018-06-21T01:14:33.754Z,6.60
2018-06-21T01:15:38.367Z,6.93
2018-06-21T01:16:42.905Z,7.20
2018-06-21T01:17:47.290Z,6.67
2018-06-21T01:18:51.667Z,7.47
2018-06-21T01:19:55.860Z,7.10
2018-06-21T01:21:00.190Z,6.92
2018-06-21T01:22:04.417Z,7.15
2018-06-21T01:23:08.794Z,7.00
2018-06-21T01:24:13.032Z,8.00
2018-06-21T01:25:17.422Z,6.92
2018-06-21T01:26:21.957Z,8.30
2018-06-21T01:27:26.179Z,7.77
2018-06-21T01:28:30.407Z,7.03
2018-06-21T01:29:34.705Z,7.50
2018-06-21T01:30:39.218Z,6.80
2018-06-21T01:31:43.599Z,8.55
2018-06-21T01:32:48.010Z,8.53
2018-06-21T01:33:52.404Z,7.67
2018-06-21T01:34:56.994Z,8.13
2018-06-21T01:36:01.329Z,7.65
2018-06-21T01:37:05.883Z,9.95
2018-06-21T01:38:10.110Z,9.33
2018-06-21T01:39:14.555Z,8.35
2018-06-21T01:40:18.820Z,9.20
2018-06-21T01:41:23.099Z,9.43
2018-06-21T01:42:27.354Z,10.03
2018-06-21T01:43:31.777Z,9.50
2018-06-21T01:44:36.238Z,12.35
2018-06-21T01:45:40.580Z,8.90
2018-06-21T01:46:44.971Z,9.50
2018-06-21T01:47:49.256Z,10.23
2018-06-21T01:48:53.436Z,10.15
2018-06-21T01:49:57.692Z,9.73
2018-06-21T01:51:02.023Z,10.70
2018-06-21T01:52:06.760Z,11.28
2018-06-21T01:53:11.114Z,11.93
2018-06-21T01:54:15.342Z,9.48
2018-06-21T01:55:19.786Z,10.48
2018-06-21T01:56:24.418Z,9.80
2018-06-21T01:57:28.619Z,11.08
2018-06-21T01:58:32.771Z,10.28
2018-06-21T01:59:37.016Z,9.68
2018-06-21T02:00:41.337Z,10.95
2018-06-21T02:01:45.778Z,10.05
2018-06-21T02:02:50.738Z,11.53
2018-06-21T02:03:55.202Z,10.65
2018-06-21T02:04:59.434Z,12.33
2018-06-21T02:06:03.780Z,10.68
2018-06-21T02:07:08.555Z,11.08
2018-06-21T02:08:12.897Z,12.15
2018-06-21T02:09:17.102Z,12.23
2018-06-21T02:10:21.335Z,10.95
2018-06-21T02:11:25.733Z,10.78
2018-06-21T02:12:30.255Z,11.25
2018-06-21T02:13:34.531Z,12.40
2018-06-21T02:14:38.798Z,12.73
2018-06-21T02:15:43.141Z,10.35
2018-06-21T02:16:47.387Z,11.68
2018-06-21T02:17:51.616Z,11.10
2018-06-21T02:18:55.887Z,14.23
2018-06-21T02:20:00.111Z,12.73
2018-06-21T02:21:04.730Z,18.40
2018-06-21T02:22:09.203Z,20.40
2018-06-21T02:23:13.440Z,21.87
2018-06-21T02:24:17.810Z,24.00
2018-06-21T02:25:22.016Z,19.17
2018-06-21T02:26:26.291Z,17.05
2018-06-21T02:27:30.711Z,12.90
2018-06-21T02:28:34.899Z,10.80
2018-06-21T02:29:39.336Z,11.60
2018-06-21T02:30:43.730Z,11.00
2018-06-21T02:31:48.042Z,11.70
2018-06-21T02:32:52.289Z,10.85
2018-06-21T02:33:56.720Z,10.60
2018-06-21T02:35:00.927Z,11.15
2018-06-21T02:36:05.192Z,11.00
2018-06-21T02:37:09.381Z,10.28
2018-06-21T02:38:13.692Z,10.68
2018-06-21T02:39:18.285Z,10.82
2018-06-21T02:40:23.822Z,10.13
2018-06-21T02:41:28.093Z,10.48
2018-06-21T02:42:32.367Z,10.60
2018-06-21T02:43:36.633Z,10.28
2018-06-21T02:44:40.939Z,9.98
2018-06-21T02:45:45.181Z,10.10
2018-06-21T02:46:49.415Z,9.73
2018-06-21T02:47:53.620Z,9.55
2018-06-21T02:48:57.860Z,9.35
2018-06-21T02:50:02.464Z,9.08
2018-06-21T02:51:07.185Z,9.08
2018-06-21T02:52:11.558Z,8.90
2018-06-21T02:53:15.838Z,8.10
2018-06-21T02:54:20.388Z,9.23
2018-06-21T02:55:24.728Z,8.73
2018-06-21T02:56:29.354Z,9.05
2018-06-21T02:57:33.756Z,9.20
2018-06-21T02:58:38.196Z,9.25
2018-06-21T02:59:42.504Z,9.53
2018-06-21T03:00:46.786Z,8.80
2018-06-21T03:01:51.295Z,9.45
2018-06-21T03:02:56.247Z,8.05
2018-06-21T03:04:00.825Z,9.40
2018-06-21T03:05:05.030Z,8.10
2018-06-21T03:06:09.314Z,8.55
2018-06-21T03:07:13.863Z,8.75
2018-06-21T03:08:18.527Z,8.25
2018-06-21T03:09:22.775Z,9.13
2018-06-21T03:10:27.144Z,9.90
2018-06-21T03:11:31.507Z,8.50
2018-06-21T03:12:36.348Z,9.50
2018-06-21T03:13:40.796Z,8.78
2018-06-21T03:14:45.053Z,8.60
2018-06-21T03:15:49.388Z,9.13
2018-06-21T03:16:53.682Z,8.73
2018-06-21T03:17:57.925Z,9.23
2018-06-21T03:19:02.078Z,9.98
2018-06-21T03:20:06.446Z,10.05
2018-06-21T03:21:10.791Z,9.75
2018-06-21T03:22:15.071Z,8.10
2018-06-21T03:23:19.357Z,9.45
2018-06-21T03:24:23.598Z,10.20
2018-06-21T03:25:27.891Z,9.30
2018-06-21T03:26:32.181Z,8.75
2018-06-21T03:27:36.439Z,10.10
2018-06-21T03:28:40.735Z,9.63
2018-06-21T03:29:44.975Z,9.65
2018-06-21T03:30:49.351Z,10.10
2018-06-21T03:31:53.707Z,9.18
2018-06-21T03:32:57.960Z,11.03
2018-06-21T03:34:02.247Z,9.35
2018-06-21T03:35:06.521Z,10.03
2018-06-21T03:36:10.790Z,9.85
2018-06-21T03:37:15.140Z,11.57
2018-06-21T03:38:19.577Z,10.53
2018-06-21T03:39:23.980Z,9.28
2018-06-21T03:40:28.331Z,10.05
2018-06-21T03:41:32.798Z,10.35
2018-06-21T03:42:37.070Z,10.82
2018-06-21T03:43:41.540Z,10.20
2018-06-21T03:44:45.967Z,9.50
2018-06-21T03:45:50.547Z,9.05
2018-06-21T03:46:54.840Z,10.95
2018-06-21T03:47:59.126Z,10.05
2018-06-21T03:49:03.398Z,9.85
2018-06-21T03:50:07.690Z,9.93
2018-06-21T03:51:12.013Z,10.13
2018-06-21T03:52:16.458Z,8.80
2018-06-21T03:53:20.947Z,9.88
2018-06-21T03:54:25.369Z,10.35
2018-06-21T03:55:29.638Z,9.55
2018-06-21T03:56:34.163Z,10.15
2018-06-21T03:57:38.660Z,10.28
2018-06-21T03:58:42.979Z,9.40
2018-06-21T03:59:47.315Z,8.68
2018-06-21T04:00:51.849Z,9.38
2018-06-21T04:01:56.715Z,9.53
2018-06-21T04:03:01.051Z,9.33
2018-06-21T04:04:05.261Z,9.70
2018-06-21T04:05:09.447Z,8.45
2018-06-21T04:06:13.747Z,9.48
2018-06-21T04:07:18.054Z,9.48
2018-06-21T04:08:22.353Z,8.58
2018-06-21T04:09:27.154Z,9.20
2018-06-21T04:10:31.335Z,8.95
2018-06-21T04:11:35.561Z,9.78
2018-06-21T04:12:40.011Z,8.88
2018-06-21T04:13:44.231Z,9.43
2018-06-21T04:14:48.463Z,9.05
2018-06-21T04:15:52.723Z,9.40
2018-06-21T04:16:57.114Z,8.55
2018-06-21T04:18:01.417Z,9.53
2018-06-21T04:19:05.739Z,8.28
2018-06-21T04:20:10.315Z,8.35
2018-06-21T04:21:14.538Z,9.13
2018-06-21T04:22:18.870Z,8.20
2018-06-21T04:23:23.096Z,8.10
2018-06-21T04:24:27.477Z,8.88
2018-06-21T04:25:31.902Z,10.70
2018-06-21T04:26:36.338Z,9.30
2018-06-21T04:27:40.652Z,8.38
2018-06-21T04:28:44.999Z,8.10
2018-06-21T04:29:49.263Z,8.23
2018-06-21T04:30:53.567Z,8.53
2018-06-21T04:31:57.816Z,8.00
2018-06-21T04:33:02.904Z,7.60
2018-06-21T04:34:07.190Z,8.10
2018-06-21T04:35:11.354Z,8.08
2018-06-21T04:36:15.618Z,9.30
2018-06-21T04:37:20.091Z,7.75
2018-06-21T04:38:24.664Z,8.00
2018-06-21T04:39:29.018Z,9.23
2018-06-21T04:40:33.228Z,8.10
2018-06-21T04:41:37.602Z,8.33
2018-06-21T04:42:41.872Z,7.58
2018-06-21T04:43:46.221Z,9.25
2018-06-21T04:44:50.499Z,8.30
2018-06-21T04:45:54.795Z,8.85
2018-06-21T04:46:58.988Z,9.43
2018-06-21T04:48:03.184Z,8.35
2018-06-21T04:49:07.323Z,8.83
2018-06-21T04:50:11.748Z,8.18
2018-06-21T04:51:16.191Z,7.58
2018-06-21T04:52:20.427Z,8.70
2018-06-21T04:53:24.659Z,8.80
2018-06-21T04:54:28.901Z,8.70
2018-06-21T04:55:33.464Z,8.83
2018-06-21T04:56:37.720Z,8.68
2018-06-21T04:57:41.948Z,8.45
2018-06-21T04:58:46.172Z,8.85
2018-06-21T04:59:50.449Z,9.38
2018-06-21T05:00:54.803Z,8.85
2018-06-21T05:01:59.018Z,9.23
2018-06-21T05:03:03.822Z,9.40
2018-06-21T05:04:08.023Z,9.10
2018-06-21T05:05:12.300Z,9.63
2018-06-21T05:06:16.511Z,11.85
2018-06-21T05:07:20.942Z,12.07
2018-06-21T05:08:25.139Z,10.63
2018-06-21T05:09:29.479Z,11.33
2018-06-21T05:10:33.704Z,12.40
2018-06-21T05:11:38.045Z,11.63
2018-06-21T05:12:42.258Z,11.83
2018-06-21T05:13:46.650Z,13.45
2018-06-21T05:14:52.393Z,14.03
2018-06-21T05:15:57.055Z,13.03
2018-06-21T05:17:01.520Z,13.65
2018-06-21T05:18:05.852Z,12.55
2018-06-21T05:19:10.306Z,14.43
2018-06-21T05:20:14.560Z,14.95
2018-06-21T05:21:18.772Z,14.03
2018-06-21T05:22:22.986Z,15.38
2018-06-21T05:23:27.397Z,15.43
2018-06-21T05:24:31.792Z,16.05
2018-06-21T05:25:35.959Z,17.75
2018-06-21T05:26:40.371Z,17.92
2018-06-21T05:27:44.604Z,17.48
2018-06-21T05:28:48.815Z,17.57
2018-06-21T05:29:53.273Z,17.42
2018-06-21T05:30:57.546Z,18.20
2018-06-21T05:32:01.885Z,19.52
2018-06-21T05:33:06.054Z,18.52
2018-06-21T05:34:10.323Z,19.90
2018-06-21T05:35:14.914Z,19.73
2018-06-21T05:36:19.162Z,19.02
2018-06-21T05:37:23.451Z,17.55
2018-06-21T05:38:27.834Z,17.85
2018-06-21T05:39:32.114Z,18.42
2018-06-21T05:40:37.628Z,17.70
2018-06-21T05:41:41.947Z,19.45
2018-06-21T05:42:46.229Z,19.48
2018-06-21T05:43:50.459Z,20.00
2018-06-21T05:44:54.810Z,18.95
2018-06-21T05:45:59.091Z,20.20
2018-06-21T05:47:03.350Z,20.10
2018-06-21T05:48:07.696Z,20.25
2018-06-21T05:49:11.955Z,19.73
2018-06-21T05:50:16.332Z,19.85
2018-06-21T05:51:20.555Z,19.67
2018-06-21T05:52:25.097Z,21.87
2018-06-21T05:53:29.295Z,21.07
2018-06-21T05:54:33.751Z,22.73
2018-06-21T05:55:38.266Z,22.50
2018-06-21T05:56:43.391Z,22.35
2018-06-21T05:57:47.524Z,19.90
2018-06-21T05:58:51.876Z,22.77
2018-06-21T05:59:56.087Z,21.10
2018-06-21T06:01:00.598Z,20.92
2018-06-21T06:02:04.940Z,23.57
2018-06-21T06:03:09.554Z,21.68
2018-06-21T06:04:13.802Z,21.75
2018-06-21T06:05:18.087Z,22.48
2018-06-21T06:06:22.385Z,22.52
2018-06-21T06:07:26.859Z,22.98
2018-06-21T06:08:31.180Z,21.02
2018-06-21T06:09:35.358Z,23.30
2018-06-21T06:10:39.875Z,23.55
2018-06-21T06:11:44.442Z,21.12
2018-06-21T06:12:48.656Z,21.80
2018-06-21T06:13:52.957Z,22.00
2018-06-21T06:14:58.334Z,21.73
2018-06-21T06:16:02.683Z,21.33
2018-06-21T06:17:06.866Z,21.33
2018-06-21T06:18:11.070Z,21.97
2018-06-21T06:19:15.278Z,20.10
2018-06-21T06:20:19.823Z,20.52
2018-06-21T06:21:24.337Z,20.92
2018-06-21T06:22:28.586Z,20.15
2018-06-21T06:23:32.851Z,19.50
2018-06-21T06:24:37.094Z,20.85
2018-06-21T06:25:41.222Z,21.15
2018-06-21T06:26:45.418Z,20.68
2018-06-21T06:27:49.754Z,19.95
2018-06-21T06:28:54.242Z,19.05
2018-06-21T06:29:58.374Z,18.70
2018-06-21T06:31:02.837Z,19.02
2018-06-21T06:32:07.218Z,18.90
2018-06-21T06:33:11.402Z,18.75
2018-06-21T06:34:15.636Z,18.70
2018-06-21T06:35:19.954Z,18.98
2018-06-21T06:36:24.275Z,17.80
2018-06-21T06:37:28.681Z,19.12
2018-06-21T06:38:32.911Z,17.77
2018-06-21T06:39:37.281Z,19.52
2018-06-21T06:40:41.408Z,18.25
2018-06-21T06:41:47.065Z,19.82
2018-06-21T06:42:51.249Z,17.52
2018-06-21T06:43:55.503Z,19.50
2018-06-21T06:44:59.805Z,18.62
2018-06-21T06:46:04.080Z,17.15
2018-06-21T06:47:08.377Z,17.00
2018-06-21T06:48:17.285Z,17.55
2018-06-21T06:49:24.875Z,16.45
2018-06-21T06:50:35.589Z,16.67
2018-06-21T06:51:42.510Z,16.48
2018-06-21T06:52:50.799Z,15.55
2018-06-21T06:53:57.456Z,15.05
2018-06-21T06:55:03.579Z,15.35
2018-06-21T06:56:08.429Z,16.45
2018-06-21T06:57:13.104Z,15.80
2018-06-21T06:58:17.523Z,16.85
2018-06-21T06:59:22.021Z,16.15
2018-06-21T07:00:26.388Z,15.80
2018-06-21T07:01:30.965Z,15.30
2018-06-21T07:02:35.283Z,15.00
2018-06-21T07:03:39.839Z,16.97
2018-06-21T07:04:44.130Z,14.33
2018-06-21T07:05:48.453Z,15.45
2018-06-21T07:06:53.345Z,16.90
2018-06-21T07:07:57.929Z,16.85
2018-06-21T07:09:02.386Z,15.38
2018-06-21T07:10:06.714Z,16.45
2018-06-21T07:11:10.974Z,16.25
2018-06-21T07:12:15.323Z,16.93
2018-06-21T07:13:19.598Z,17.52
2018-06-21T07:14:23.862Z,15.32
2018-06-21T07:15:28.127Z,15.63
2018-06-21T07:16:32.372Z,16.40
2018-06-21T07:17:36.796Z,14.87
2018-06-21T07:18:41.657Z,15.10
2018-06-21T07:19:46.023Z,14.83
2018-06-21T07:20:50.370Z,14.55
2018-06-21T07:21:54.702Z,13.65
2018-06-21T07:22:58.908Z,13.68
2018-06-21T07:24:03.375Z,14.68
2018-06-21T07:25:07.819Z,13.48
2018-06-21T07:26:12.179Z,15.63
2018-06-21T07:27:16.356Z,16.00
2018-06-21T07:28:20.629Z,13.75
2018-06-21T07:29:25.113Z,13.45
2018-06-21T07:30:29.807Z,14.93
2018-06-21T07:31:35.466Z,13.20
2018-06-21T07:32:39.806Z,13.25
2018-06-21T07:33:44.659Z,13.48
2018-06-21T07:34:48.835Z,14.60
2018-06-21T07:35:53.115Z,12.68
2018-06-21T07:36:57.487Z,13.43
2018-06-21T07:38:02.384Z,13.65
2018-06-21T07:39:08.885Z,13.10
2018-06-21T07:40:13.291Z,13.40
2018-06-21T07:41:17.912Z,14.05
2018-06-21T07:42:22.159Z,12.07
2018-06-21T07:43:26.468Z,13.22
2018-06-21T07:44:30.677Z,13.22
2018-06-21T07:45:34.970Z,10.68
2018-06-21T07:46:39.255Z,8.80
2018-06-21T07:47:43.720Z,8.53
2018-06-21T07:48:47.924Z,9.38
2018-06-21T07:49:52.167Z,7.30
2018-06-21T07:50:56.628Z,7.70
2018-06-21T07:52:01.421Z,7.70
2018-06-21T07:53:05.819Z,8.60
2018-06-21T07:54:10.064Z,4.28
2018-06-21T07:55:14.355Z,5.90
2018-06-21T07:56:19.017Z,5.85
2018-06-21T07:57:23.288Z,7.47
2018-06-21T07:58:27.522Z,5.83
2018-06-21T07:59:31.715Z,5.20
2018-06-21T08:00:36.404Z,4.55
2018-06-21T08:01:40.634Z,5.00
2018-06-21T08:02:44.858Z,4.90
2018-06-21T08:03:49.551Z,5.08
2018-06-21T08:04:53.826Z,4.67
2018-06-21T08:05:58.134Z,4.25
2018-06-21T08:07:02.621Z,3.45
2018-06-21T08:08:07.010Z,4.05
2018-06-21T08:09:12.644Z,3.37
2018-06-21T08:10:17.234Z,4.55
2018-06-21T08:11:21.485Z,4.30
2018-06-21T08:12:25.698Z,3.20
2018-06-21T08:13:29.932Z,4.67
2018-06-21T08:14:34.180Z,3.60
2018-06-21T08:15:38.513Z,4.25
2018-06-21T08:16:44.950Z,3.40
2018-06-21T08:17:49.349Z,3.33
2018-06-21T08:18:53.608Z,3.67
2018-06-21T08:19:57.895Z,3.60
2018-06-21T08:21:02.161Z,3.45
2018-06-21T08:22:06.828Z,4.53
2018-06-21T08:23:11.154Z,3.40
2018-06-21T08:24:15.363Z,4.25
2018-06-21T08:25:19.630Z,4.12
2018-06-21T08:26:24.015Z,4.47
2018-06-21T08:27:28.204Z,4.05
2018-06-21T08:28:32.597Z,4.15
2018-06-21T08:29:36.842Z,4.03
2018-06-21T08:30:41.248Z,3.95
2018-06-21T08:31:45.939Z,3.60
2018-06-21T08:32:50.142Z,3.27
2018-06-21T08:33:54.557Z,5.35
2018-06-21T08:34:59.101Z,3.12
2018-06-21T08:36:03.804Z,3.70
2018-06-21T08:37:08.370Z,3.25
2018-06-21T08:38:13.081Z,3.92
2018-06-21T08:39:17.538Z,3.87
2018-06-21T08:40:21.867Z,3.85
2018-06-21T08:41:26.735Z,3.60
2018-06-21T08:42:30.996Z,4.00
2018-06-21T08:43:35.461Z,4.08
2018-06-21T08:44:39.656Z,4.37
2018-06-21T08:45:44.049Z,3.25
2018-06-21T08:46:48.471Z,3.50
2018-06-21T08:47:52.696Z,3.67
2018-06-21T08:48:56.907Z,3.47
2018-06-21T08:50:01.158Z,3.58
2018-06-21T08:51:05.553Z,3.60
2018-06-21T08:52:09.764Z,3.60
2018-06-21T08:53:14.199Z,4.25
2018-06-21T08:54:18.440Z,4.17
2018-06-21T08:55:22.802Z,3.92
2018-06-21T08:56:27.361Z,3.92
2018-06-21T08:57:32.054Z,3.60
2018-06-21T08:58:36.249Z,4.08
2018-06-21T08:59:40.454Z,3.90
2018-06-21T09:00:44.841Z,4.78
2018-06-21T09:01:49.073Z,3.75
2018-06-21T09:02:53.489Z,3.90
2018-06-21T09:03:58.336Z,3.30
2018-06-21T09:05:02.900Z,4.20
2018-06-21T09:06:07.163Z,3.52
2018-06-21T09:07:11.540Z,3.15
2018-06-21T09:08:15.798Z,4.05
2018-06-21T09:09:20.279Z,3.80
2018-06-21T09:10:24.558Z,3.00
2018-06-21T09:11:28.825Z,3.60
2018-06-21T09:12:36.552Z,3.25
2018-06-21T09:13:40.801Z,3.02
2018-06-21T09:14:45.294Z,3.02
2018-06-21T09:15:49.682Z,3.62
2018-06-21T09:16:53.904Z,3.00
2018-06-21T09:17:58.164Z,3.42
2018-06-21T09:19:02.538Z,3.30
2018-06-21T09:20:06.805Z,3.42
2018-06-21T09:21:11.101Z,3.15
2018-06-21T09:22:15.241Z,2.65
2018-06-21T09:23:19.623Z,3.30
2018-06-21T09:24:23.992Z,3.35
2018-06-21T09:25:28.359Z,3.30
2018-06-21T09:26:32.838Z,3.52
2018-06-21T09:27:37.188Z,3.60
2018-06-21T09:28:41.461Z,3.45
2018-06-21T09:29:45.688Z,3.17
2018-06-21T09:30:50.175Z,3.72
2018-06-21T09:31:54.372Z,2.67
2018-06-21T09:32:58.579Z,3.15
2018-06-21T09:34:02.759Z,3.67
2018-06-21T09:35:07.051Z,2.72
2018-06-21T09:36:11.276Z,3.30
2018-06-21T09:37:15.582Z,3.70
2018-06-21T09:38:25.093Z,2.80
2018-06-21T09:39:34.840Z,2.70
2018-06-21T09:40:44.282Z,3.20
2018-06-21T09:41:53.821Z,3.10
2018-06-21T09:43:03.294Z,2.90
2018-06-21T09:44:12.755Z,2.75
2018-06-21T09:45:22.047Z,2.55
2018-06-21T09:46:34.490Z,2.60
2018-06-21T09:47:41.650Z,2.70
2018-06-21T09:48:51.136Z,2.80
2018-06-21T09:49:55.507Z,3.42
2018-06-21T09:51:00.455Z,3.15
2018-06-21T09:52:05.666Z,2.87
2018-06-21T09:53:10.000Z,3.55
2018-06-21T09:54:14.463Z,2.67
2018-06-21T09:55:19.038Z,3.12
2018-06-21T09:56:23.183Z,3.37
2018-06-21T09:57:27.486Z,3.47
2018-06-21T09:58:32.883Z,2.60
2018-06-21T09:59:37.380Z,2.90
2018-06-21T10:00:46.951Z,3.00
2018-06-21T10:01:51.159Z,3.27
2018-06-21T10:02:55.528Z,2.70
2018-06-21T10:03:59.875Z,2.67
2018-06-21T10:05:04.363Z,2.12
2018-06-21T10:06:08.567Z,2.52
2018-06-21T10:07:12.819Z,3.10
2018-06-21T10:08:17.023Z,3.30
2018-06-21T10:09:21.210Z,2.67
2018-06-21T10:10:25.376Z,3.20
2018-06-21T10:11:29.713Z,2.85
2018-06-21T10:12:34.246Z,2.72
2018-06-21T10:13:38.493Z,2.25
2018-06-21T10:14:42.814Z,2.52
2018-06-21T10:15:47.105Z,3.05
2018-06-21T10:16:51.727Z,2.85
2018-06-21T10:17:59.004Z,4.08
2018-06-21T10:19:03.416Z,2.90
2018-06-21T10:20:07.674Z,2.85
2018-06-21T10:21:12.227Z,3.00
2018-06-21T10:22:16.490Z,2.50
2018-06-21T10:23:21.001Z,2.70
2018-06-21T10:24:25.623Z,2.77
2018-06-21T10:25:29.946Z,3.05
2018-06-21T10:26:34.404Z,4.45
2018-06-21T10:27:38.608Z,2.90
2018-06-21T10:28:42.954Z,3.10
2018-06-21T10:29:47.131Z,3.00
2018-06-21T10:30:51.347Z,2.62
2018-06-21T10:31:55.606Z,2.90
2018-06-21T10:32:59.844Z,3.00
2018-06-21T10:34:04.191Z,2.83
2018-06-21T10:35:08.868Z,3.10
2018-06-21T10:36:13.044Z,2.62
2018-06-21T10:37:17.267Z,3.20
2018-06-21T10:38:21.539Z,2.10
2018-06-21T10:39:25.924Z,2.60
2018-06-21T10:40:30.110Z,2.60
2018-06-21T10:41:34.324Z,2.72
2018-06-21T10:42:38.591Z,2.77
2018-06-21T10:43:43.033Z,3.10
2018-06-21T10:44:47.198Z,2.37
2018-06-21T10:45:51.505Z,1.90
2018-06-21T10:46:55.873Z,2.58
2018-06-21T10:48:00.072Z,2.92
2018-06-21T10:49:04.293Z,2.20
2018-06-21T10:50:08.483Z,2.70
2018-06-21T10:51:12.680Z,3.00
2018-06-21T10:52:17.025Z,2.30
2018-06-21T10:53:21.275Z,3.72
2018-06-21T10:54:25.773Z,2.85
2018-06-21T10:55:30.358Z,2.50
2018-06-21T10:56:34.592Z,3.02
2018-06-21T10:57:38.812Z,3.52
2018-06-21T10:58:43.191Z,1.95
2018-06-21T10:59:47.431Z,2.75
2018-06-21T11:00:51.658Z,2.85
2018-06-21T11:01:56.200Z,2.70
2018-06-21T11:03:00.422Z,2.30
2018-06-21T11:04:04.998Z,2.35
2018-06-21T11:05:09.355Z,2.50
2018-06-21T11:06:13.683Z,2.02
2018-06-21T11:07:17.850Z,2.30
2018-06-21T11:08:22.199Z,2.40
2018-06-21T11:09:26.507Z,2.22
2018-06-21T11:10:30.766Z,2.35
2018-06-21T11:11:35.032Z,2.20
2018-06-21T11:12:39.287Z,1.95
2018-06-21T11:13:43.562Z,2.98
2018-06-21T11:14:48.097Z,1.70
2018-06-21T11:15:52.322Z,2.10
2018-06-21T11:16:56.885Z,2.10
2018-06-21T11:18:01.203Z,2.10
2018-06-21T11:19:05.482Z,2.10
2018-06-21T11:20:09.690Z,2.20
2018-06-21T11:21:13.876Z,2.02
2018-06-21T11:22:18.079Z,1.90
2018-06-21T11:23:22.253Z,1.98
2018-06-21T11:24:26.482Z,2.25
2018-06-21T11:25:30.821Z,1.95
2018-06-21T11:26:35.410Z,2.25
2018-06-21T11:27:39.715Z,2.05
2018-06-21T11:28:44.035Z,2.02
2018-06-21T11:29:48.331Z,1.75
2018-06-21T11:30:52.497Z,1.80
2018-06-21T11:31:56.966Z,2.12
2018-06-21T11:33:01.206Z,2.22
2018-06-21T11:34:05.533Z,2.08
2018-06-21T11:35:09.832Z,1.90
2018-06-21T11:36:14.098Z,1.85
2018-06-21T11:37:18.311Z,2.37
2018-06-21T11:38:22.587Z,1.90
2018-06-21T11:39:27.099Z,1.90
2018-06-21T11:40:31.486Z,1.87
2018-06-21T11:41:35.663Z,1.80
2018-06-21T11:42:39.871Z,1.85
2018-06-21T11:43:44.090Z,1.75
2018-06-21T11:44:48.256Z,1.40
2018-06-21T11:45:52.511Z,1.65
2018-06-21T11:46:56.740Z,1.82
2018-06-21T11:48:01.337Z,1.92
2018-06-21T11:49:05.933Z,1.60
2018-06-21T11:50:10.209Z,1.12
2018-06-21T11:51:14.531Z,1.70
2018-06-21T11:52:18.845Z,1.45
2018-06-21T11:53:22.997Z,2.35
2018-06-21T11:54:27.521Z,1.52
2018-06-21T11:55:31.828Z,1.57
2018-06-21T11:56:36.135Z,1.75
2018-06-21T11:57:40.433Z,1.67
2018-06-21T11:58:44.830Z,1.45
2018-06-21T11:59:49.007Z,1.80
2018-06-21T12:00:53.447Z,1.75
2018-06-21T12:01:57.712Z,2.55
2018-06-21T12:03:01.957Z,2.08
2018-06-21T12:04:06.422Z,2.22
2018-06-21T12:05:10.544Z,1.70
2018-06-21T12:06:14.780Z,1.47
2018-06-21T12:07:19.069Z,1.30
2018-06-21T12:08:23.307Z,1.85
2018-06-21T12:09:27.465Z,1.70
2018-06-21T12:10:31.872Z,1.75
2018-06-21T12:11:36.289Z,1.85
2018-06-21T12:12:40.586Z,1.52
2018-06-21T12:13:44.755Z,2.60
2018-06-21T12:14:48.982Z,2.15
2018-06-21T12:15:53.220Z,2.00
2018-06-21T12:16:57.408Z,2.10
2018-06-21T12:18:01.636Z,1.85
2018-06-21T12:19:05.994Z,2.60
2018-06-21T12:20:10.250Z,1.60
2018-06-21T12:21:14.574Z,2.30
2018-06-21T12:22:18.839Z,1.50
2018-06-21T12:23:23.171Z,2.60
2018-06-21T12:24:28.027Z,1.85
2018-06-21T12:25:33.276Z,2.25
2018-06-21T12:26:37.578Z,2.40
2018-06-21T12:27:41.807Z,3.83
2018-06-21T12:28:46.031Z,1.42
2018-06-21T12:29:50.532Z,1.95
2018-06-21T12:30:54.784Z,4.37
2018-06-21T12:31:59.875Z,1.95
2018-06-21T12:33:04.099Z,2.12
2018-06-21T12:34:08.435Z,1.80
2018-06-21T12:35:12.822Z,2.15
2018-06-21T12:36:17.110Z,1.85
2018-06-21T12:37:21.390Z,1.90
2018-06-21T12:38:25.618Z,1.60
2018-06-21T12:39:29.757Z,1.87
2018-06-21T12:40:34.084Z,1.85
2018-06-21T12:41:38.346Z,1.65
2018-06-21T12:42:42.578Z,1.70
2018-06-21T12:43:46.830Z,1.60
2018-06-21T12:44:51.022Z,1.67
2018-06-21T12:45:55.281Z,1.87
2018-06-21T12:46:59.434Z,2.22
2018-06-21T12:48:03.677Z,2.00
2018-06-21T12:49:08.062Z,1.57
2018-06-21T12:50:12.599Z,1.70
2018-06-21T12:51:16.810Z,1.50
2018-06-21T12:52:21.089Z,1.77
2018-06-21T12:53:25.303Z,1.65
2018-06-21T12:54:29.607Z,1.80
2018-06-21T12:55:33.968Z,1.90
2018-06-21T12:56:38.399Z,1.67
2018-06-21T12:57:42.746Z,1.60
2018-06-21T12:58:47.255Z,1.80
2018-06-21T12:59:51.467Z,1.67
2018-06-21T13:00:55.843Z,1.80
2018-06-21T13:02:00.158Z,1.90
2018-06-21T13:03:04.421Z,1.80
2018-06-21T13:04:09.185Z,1.62
2018-06-21T13:05:13.343Z,3.00
2018-06-21T13:06:17.671Z,2.05
2018-06-21T13:07:21.919Z,1.98
2018-06-21T13:08:37.545Z,1.72
2018-06-21T13:09:52.969Z,1.72
2018-06-21T13:11:08.333Z,2.30
2018-06-21T13:12:26.763Z,2.30
2018-06-21T13:13:31.115Z,1.70
2018-06-21T13:14:35.307Z,1.90
2018-06-21T13:15:40.129Z,1.98
2018-06-21T13:16:44.759Z,2.75
2018-06-21T13:17:49.253Z,1.90
2018-06-21T13:18:53.729Z,2.00
2018-06-21T13:19:58.798Z,2.60
2018-06-21T13:21:03.252Z,1.82
2018-06-21T13:22:07.554Z,1.85
2018-06-21T13:23:12.183Z,2.30
2018-06-21T13:24:16.612Z,1.87
2018-06-21T13:25:21.019Z,1.70
2018-06-21T13:26:25.574Z,1.80
2018-06-21T13:27:29.788Z,1.20
2018-06-21T13:28:34.043Z,1.70
2018-06-21T13:29:39.268Z,1.45
2018-06-21T13:30:43.574Z,1.92
2018-06-21T13:31:47.787Z,2.15
2018-06-21T13:32:52.078Z,1.80
2018-06-21T13:33:56.272Z,1.60
2018-06-21T13:35:00.515Z,2.40
2018-06-21T13:36:04.813Z,2.92
2018-06-21T13:37:09.536Z,2.72
2018-06-21T13:38:13.734Z,2.75
2018-06-21T13:39:18.200Z,2.08
2018-06-21T13:40:22.423Z,2.08
2018-06-21T13:41:26.753Z,2.30
2018-06-21T13:42:31.097Z,1.60
2018-06-21T13:43:35.336Z,1.72
2018-06-21T13:44:39.559Z,1.75
2018-06-21T13:45:43.921Z,1.92
2018-06-21T13:46:48.207Z,2.20
2018-06-21T13:47:52.731Z,2.25
2018-06-21T13:48:56.967Z,1.95
2018-06-21T13:50:01.108Z,2.30
2018-06-21T13:51:05.763Z,1.80
2018-06-21T13:52:10.058Z,1.85
2018-06-21T13:53:14.382Z,1.98
2018-06-21T13:54:18.819Z,1.95
2018-06-21T13:55:22.974Z,2.08
2018-06-21T13:56:27.335Z,1.80
2018-06-21T13:57:31.505Z,2.30
2018-06-21T13:58:35.847Z,2.10
2018-06-21T13:59:40.109Z,2.65
2018-06-21T14:00:44.437Z,2.15
2018-06-21T14:01:49.395Z,2.10
2018-06-21T14:02:54.117Z,2.05
2018-06-21T14:03:58.337Z,2.17
2018-06-21T14:05:02.579Z,1.70
2018-06-21T14:06:06.970Z,1.80
2018-06-21T14:07:11.158Z,1.90
2018-06-21T14:08:15.437Z,2.10
2018-06-21T14:09:19.583Z,1.55
2018-06-21T14:10:23.804Z,2.10
2018-06-21T14:11:27.992Z,2.50